Time,TemperatureF,DewpointF,PressureIn,WindDirection,WindDirectionDegrees,WindSpeedMPH,WindSpeedGustMPH,Humidity,HourlyPrecipIn,Conditions,Clouds,dailyrainin,SoftwareType,DateUTC
2013-07-13 00:10:00,63.8,54.9,30.21,NNE,17,1.0,7.0,73,0.00,CLR,CLR,0.00,WeatherDisplay:10.37,2013-07-12 23:10:00,
2013-07-13 00:30:00,64.0,54.8,30.20,NNE,32,1.0,6.0,72,0.00,CLR,CLR,0.00,WeatherDisplay:10.37,2013-07-12 23:30:00,
2013-07-13 00:40:00,64.0,54.4,30.21,NNE,22,1.0,7.0,71,0.00,CLR,CLR,0.00,WeatherDisplay:10.37,2013-07-12 23:40:00,
2013-07-13 00:50:00,63.9,54.3,30.21,North,354,1.0,5.0,71,0.00,CLR,CLR,0.00,WeatherDisplay:10.37,2013-07-12 23:50:00,
2013-07-13 01:00:00,63.3,54.1,30.21,North,0,0.0,5.0,72,0.00,CLR,CLR,0.00,WeatherDisplay:10.37,2013-07-13 00:00:00,
2013-07-13 01:20:00,62.8,53.6,30.21,NE,36,1.0,4.0,72,0.00,CLR,CLR,0.00,WeatherDisplay:10.37,2013-07-13 00:20:00,
2013-07-13 01:30:00,62.8,53.6,30.21,NE,44,2.0,5.0,72,0.00,CLR,CLR,0.00,WeatherDisplay:10.37,2013-07-13 00:30:00,
2013-07-13 01:40:00,62.7,53.5,30.21,ENE,74,0.0,6.0,72,0.00,CLR,CLR,0.00,WeatherDisplay:10.37,2013-07-13 00:40:00,
2013-07-13 02:00:00,62.4,54.0,30.21,NNE,20,0.0,4.0,74,0.00,CLR,CLR,0.00,WeatherDisplay:10.37,2013-07-13 01:00:00,
2013-07-13 02:10:00,62.1,53.7,30.21,NNE,26,0.0,1.0,74,0.00,CLR,CLR,0.00,WeatherDisplay:10.37,2013-07-13 01:10:00,
2013-07-13 02:20:00,62.0,54.0,30.21,NNE,27,1.0,3.0,75,0.00,CLR,CLR,0.00,WeatherDisplay:10.37,2013-07-13 01:20:00,
2013-07-13 02:40:00,62.2,54.2,30.21,NNW,344,2.0,6.0,75,0.00,CLR,CLR,0.00,WeatherDisplay:10.37,2013-07-13 01:40:00,
2013-07-13 02:50:00,62.1,54.4,30.22,NNW,334,3.0,6.0,76,0.00,CLR,CLR,0.00,WeatherDisplay:10.37,2013-07-13 01:50:00,
2013-07-13 03:10:00,62.2,54.9,30.21,North,2,3.0,7.0,77,0.00,CLR,CLR,0.00,WeatherDisplay:10.37,2013-07-13 02:10:00,
2013-07-13 03:20:00,62.1,55.1,30.21,East,79,5.0,8.0,78,0.00,CLR,CLR,0.00,WeatherDisplay:10.37,2013-07-13 02:20:00,
2013-07-13 03:30:00,62.2,55.9,30.22,NNE,28,5.0,8.0,80,0.00,CLR,CLR,0.00,WeatherDisplay:10.37,2013-07-13 02:30:00,
2013-07-13 03:40:00,61.7,55.8,30.22,NNE,22,3.0,8.0,81,0.00,CLR,CLR,0.00,WeatherDisplay:10.37,2013-07-13 02:40:00,
2013-07-13 03:50:00,61.7,56.5,30.22,NE,35,2.0,7.0,83,0.00,CLR,CLR,0.00,WeatherDisplay:10.37,2013-07-13 02:50:00,
2013-07-13 04:00:00,61.7,56.8,30.22,NNE,26,2.0,6.0,84,0.00,CLR,CLR,0.00,WeatherDisplay:10.37,2013-07-13 03:00:00,
2013-07-13 04:10:00,61.9,57.6,30.22,North,8,3.0,9.0,86,0.00,CLR,CLR,0.00,WeatherDisplay:10.37,2013-07-13 03:10:00,
2013-07-13 04:20:00,61.9,57.6,30.22,North,6,3.0,10.0,86,0.00,CLR,CLR,0.00,WeatherDisplay:10.37,2013-07-13 03:20:00,
2013-07-13 04:40:00,60.8,57.2,30.22,NNE,30,6.0,10.0,88,0.00,CLR,CLR,0.00,WeatherDisplay:10.37,2013-07-13 03:40:00,
2013-07-13 04:50:00,60.1,56.8,30.22,North,7,1.0,8.0,89,0.00,CLR,CLR,0.00,WeatherDisplay:10.37,2013-07-13 03:50:00,
2013-07-13 05:00:00,59.7,56.5,30.22,NNW,347,1.0,6.0,89,0.00,CLR,CLR,0.00,WeatherDisplay:10.37,2013-07-13 04:00:00,
2013-07-13 05:10:00,59.3,56.1,30.22,NE,35,0.0,7.0,89,0.00,CLR,CLR,0.00,WeatherDisplay:10.37,2013-07-13 04:10:00,
2013-07-13 05:20:00,59.0,56.1,30.22,ENE,70,1.0,5.0,90,0.00,CLR,CLR,0.00,WeatherDisplay:10.37,2013-07-13 04:20:00,
2013-07-13 05:30:00,58.9,56.0,30.22,NE,56,2.0,5.0,90,0.00,CLR,CLR,0.00,WeatherDisplay:10.37,2013-07-13 04:30:00,
2013-07-13 05:40:00,58.6,56.3,30.22,NE,46,1.0,6.0,92,0.00,CLR,CLR,0.00,WeatherDisplay:10.37,2013-07-13 04:40:00,
2013-07-13 05:50:00,58.8,56.8,30.22,NNE,27,3.0,8.0,93,0.00,CLR,CLR,0.00,WeatherDisplay:10.37,2013-07-13 04:50:00,
2013-07-13 06:00:00,59.0,57.0,30.23,North,6,2.0,9.0,93,0.00,CLR,CLR,0.00,WeatherDisplay:10.37,2013-07-13 05:00:00,
2013-07-13 06:10:00,59.4,57.3,30.23,NNE,15,1.0,7.0,93,0.00,CLR,CLR,0.00,WeatherDisplay:10.37,2013-07-13 05:10:00,
2013-07-13 06:20:00,59.7,58.0,30.22,North,358,3.0,8.0,94,0.00,CLR,CLR,0.00,WeatherDisplay:10.37,2013-07-13 05:20:00,
2013-07-13 06:30:00,59.9,58.2,30.22,NNW,340,2.0,6.0,94,0.00,CLR,CLR,0.00,WeatherDisplay:10.37,2013-07-13 05:30:00,
2013-07-13 06:40:00,60.6,59.2,30.22,NNE,27,2.0,12.0,95,0.00,CLR,CLR,0.00,WeatherDisplay:10.37,2013-07-13 05:40:00,
2013-07-13 06:50:00,60.8,59.1,30.22,NNE,32,3.0,6.0,94,0.00,CLR,CLR,0.00,WeatherDisplay:10.37,2013-07-13 05:50:00,
2013-07-13 07:00:00,60.7,59.2,30.22,North,0,2.0,6.0,95,0.00,CLR,CLR,0.00,WeatherDisplay:10.37,2013-07-13 06:00:00,
2013-07-13 07:10:00,61.0,59.6,30.23,NNE,16,2.0,7.0,95,0.00,CLR,CLR,0.00,WeatherDisplay:10.37,2013-07-13 06:10:00,
2013-07-13 07:20:00,61.5,60.1,30.22,NNE,13,3.0,7.0,95,0.00,CLR,CLR,0.00,WeatherDisplay:10.37,2013-07-13 06:20:00,
2013-07-13 07:30:00,61.5,60.1,30.23,NNE,29,3.0,8.0,95,0.00,CLR,CLR,0.00,WeatherDisplay:10.37,2013-07-13 06:30:00,
2013-07-13 07:40:00,61.7,60.0,30.23,NE,36,2.0,8.0,94,0.00,CLR,CLR,0.00,WeatherDisplay:10.37,2013-07-13 06:40:00,
2013-07-13 07:50:00,61.7,60.0,30.23,NE,44,5.0,11.0,94,0.00,CLR,CLR,0.00,WeatherDisplay:10.37,2013-07-13 06:50:00,
2013-07-13 08:00:00,62.1,60.3,30.23,NE,39,2.0,8.0,94,0.00,CLR,CLR,0.00,WeatherDisplay:10.37,2013-07-13 07:00:00,
2013-07-13 08:10:00,63.6,61.0,30.23,NNE,22,3.0,9.0,91,0.00,CLR,CLR,0.00,WeatherDisplay:10.37,2013-07-13 07:10:00,
2013-07-13 08:20:00,64.6,60.7,30.24,NE,46,2.0,11.0,87,0.00,CLR,CLR,0.00,WeatherDisplay:10.37,2013-07-13 07:20:00,
2013-07-13 08:30:00,64.4,60.1,30.24,NNE,32,3.0,8.0,86,0.00,CLR,CLR,0.00,WeatherDisplay:10.37,2013-07-13 07:30:00,
2013-07-13 08:40:00,64.6,59.7,30.24,NE,41,6.0,14.0,84,0.00,CLR,CLR,0.00,WeatherDisplay:10.37,2013-07-13 07:40:00,
2013-07-13 08:50:00,64.9,59.7,30.24,NNW,340,6.0,14.0,83,0.00,CLR,CLR,0.00,WeatherDisplay:10.37,2013-07-13 07:50:00,
2013-07-13 09:00:00,64.5,59.2,30.24,NE,39,5.0,14.0,83,0.00,CLR,CLR,0.00,WeatherDisplay:10.37,2013-07-13 08:00:00,
2013-07-13 09:10:00,64.8,59.5,30.25,NE,56,2.0,8.0,83,0.00,CLR,CLR,0.00,WeatherDisplay:10.37,2013-07-13 08:10:00,
2013-07-13 09:20:00,64.4,59.5,30.25,NNE,20,5.0,13.0,84,0.00,CLR,CLR,0.00,WeatherDisplay:10.37,2013-07-13 08:20:00,
2013-07-13 09:30:00,64.4,59.1,30.25,North,8,5.0,10.0,83,0.00,CLR,CLR,0.00,WeatherDisplay:10.37,2013-07-13 08:30:00,
2013-07-13 09:40:00,64.3,58.7,30.25,NNE,23,2.0,10.0,82,0.00,CLR,CLR,0.00,WeatherDisplay:10.37,2013-07-13 08:40:00,
2013-07-13 09:50:00,63.4,58.1,30.25,North,360,6.0,15.0,83,0.00,CLR,CLR,0.00,WeatherDisplay:10.37,2013-07-13 08:50:00,
2013-07-13 10:00:00,62.8,57.9,30.25,NE,46,6.0,12.0,84,0.00,CLR,CLR,0.00,WeatherDisplay:10.37,2013-07-13 09:00:00,
2013-07-13 10:10:00,63.1,58.2,30.25,NNE,33,3.0,13.0,84,0.00,CLR,CLR,0.00,WeatherDisplay:10.37,2013-07-13 09:10:00,
2013-07-13 10:20:00,63.7,58.8,30.25,NE,37,1.0,11.0,84,0.00,CLR,CLR,0.00,WeatherDisplay:10.37,2013-07-13 09:20:00,
2013-07-13 14:00:00,72.5,60.5,30.25,North,357,5.0,10.0,66,0.00,CLR,CLR,0.00,WeatherDisplay:10.37,2013-07-13 13:00:00,
2013-07-13 14:10:00,72.7,60.7,30.25,NE,54,2.0,10.0,66,0.00,CLR,CLR,0.00,WeatherDisplay:10.37,2013-07-13 13:10:00,
2013-07-13 14:20:00,73.7,61.6,30.25,NNE,22,3.0,7.0,66,0.00,CLR,CLR,0.00,WeatherDisplay:10.37,2013-07-13 13:20:00,
2013-07-13 14:30:00,73.9,61.0,30.25,ENE,68,5.0,14.0,64,0.00,CLR,CLR,0.00,WeatherDisplay:10.37,2013-07-13 13:30:00,
2013-07-13 14:40:00,75.2,60.4,30.25,ENE,58,2.0,8.0,60,0.00,CLR,CLR,0.00,WeatherDisplay:10.37,2013-07-13 13:40:00,
2013-07-13 14:50:00,76.8,61.4,30.25,North,5,3.0,8.0,59,0.00,CLR,CLR,0.00,WeatherDisplay:10.37,2013-07-13 13:50:00,
2013-07-13 15:00:00,76.0,60.6,30.25,NNE,22,5.0,12.0,59,0.00,CLR,CLR,0.00,WeatherDisplay:10.37,2013-07-13 14:00:00,
2013-07-13 15:10:00,76.5,60.6,30.25,North,8,2.0,10.0,58,0.00,CLR,CLR,0.00,WeatherDisplay:10.37,2013-07-13 14:10:00,
2013-07-13 15:20:00,77.0,60.1,30.25,North,360,5.0,10.0,56,0.00,CLR,CLR,0.00,WeatherDisplay:10.37,2013-07-13 14:20:00,
2013-07-13 15:30:00,76.4,61.0,30.24,NNE,24,2.0,12.0,59,0.00,CLR,CLR,0.00,WeatherDisplay:10.37,2013-07-13 14:30:00,
2013-07-13 15:40:00,77.7,60.3,30.24,North,4,2.0,8.0,55,0.00,CLR,CLR,0.00,WeatherDisplay:10.37,2013-07-13 14:40:00,
2013-07-13 15:50:00,78.4,60.4,30.24,NNE,27,1.0,9.0,54,0.00,CLR,CLR,0.00,WeatherDisplay:10.37,2013-07-13 14:50:00,
2013-07-13 16:00:00,78.4,60.9,30.24,East,80,3.0,9.0,55,0.00,CLR,CLR,0.00,WeatherDisplay:10.37,2013-07-13 15:00:00,
2013-07-13 16:30:00,79.0,60.4,30.23,North,3,2.0,10.0,53,0.00,CLR,CLR,0.00,WeatherDisplay:10.37,2013-07-13 15:30:00,
2013-07-13 16:40:00,77.2,60.3,30.24,NNW,348,2.0,9.0,56,0.00,CLR,CLR,0.00,WeatherDisplay:10.37,2013-07-13 15:40:00,
2013-07-13 16:50:00,79.0,60.4,30.24,East,98,5.0,8.0,53,0.00,CLR,CLR,0.00,WeatherDisplay:10.37,2013-07-13 15:50:00,
2013-07-13 17:00:00,80.8,61.0,30.24,NNE,15,5.0,8.0,51,0.00,CLR,CLR,0.00,WeatherDisplay:10.37,2013-07-13 16:00:00,
2013-07-13 17:10:00,80.2,60.5,30.24,NNW,336,3.0,10.0,51,0.00,CLR,CLR,0.00,WeatherDisplay:10.37,2013-07-13 16:10:00,
2013-07-13 17:20:00,79.0,59.9,30.23,North,9,3.0,12.0,52,0.00,CLR,CLR,0.00,WeatherDisplay:10.37,2013-07-13 16:20:00,
2013-07-13 17:30:00,78.7,60.1,30.23,NNE,16,6.0,12.0,53,0.00,CLR,CLR,0.00,WeatherDisplay:10.37,2013-07-13 16:30:00,
2013-07-13 17:40:00,79.0,59.3,30.23,North,8,6.0,10.0,51,0.00,CLR,CLR,0.00,WeatherDisplay:10.37,2013-07-13 16:40:00,
2013-07-13 17:50:00,78.7,60.1,30.23,NNE,17,5.0,15.0,53,0.00,CLR,CLR,0.00,WeatherDisplay:10.37,2013-07-13 16:50:00,
2013-07-13 18:00:00,79.2,59.5,30.23,NNE,21,3.0,13.0,51,0.00,CLR,CLR,0.00,WeatherDisplay:10.37,2013-07-13 17:00:00,
2013-07-13 18:10:00,79.3,59.6,30.23,NE,41,3.0,12.0,51,0.00,CLR,CLR,0.00,WeatherDisplay:10.37,2013-07-13 17:10:00,
2013-07-13 18:20:00,80.0,60.3,30.23,NW,319,2.0,7.0,51,0.00,CLR,CLR,0.00,WeatherDisplay:10.37,2013-07-13 17:20:00,
2013-07-13 18:30:00,78.3,59.2,30.22,North,359,3.0,12.0,52,0.00,CLR,CLR,0.00,WeatherDisplay:10.37,2013-07-13 17:30:00,
2013-07-13 18:40:00,78.1,60.1,30.22,North,6,3.0,14.0,54,0.00,CLR,CLR,0.00,WeatherDisplay:10.37,2013-07-13 17:40:00,
2013-07-13 18:50:00,76.9,59.0,30.22,North,357,5.0,14.0,54,0.00,CLR,CLR,0.00,WeatherDisplay:10.37,2013-07-13 17:50:00,
2013-07-13 19:00:00,77.4,59.9,30.22,NNE,18,3.0,11.0,55,0.00,CLR,CLR,0.00,WeatherDisplay:10.37,2013-07-13 18:00:00,
2013-07-13 19:10:00,76.5,59.6,30.22,North,10,3.0,13.0,56,0.00,CLR,CLR,0.00,WeatherDisplay:10.37,2013-07-13 18:10:00,
2013-07-13 19:20:00,76.5,60.1,30.22,NNE,32,5.0,13.0,57,0.00,CLR,CLR,0.00,WeatherDisplay:10.37,2013-07-13 18:20:00,
2013-07-13 19:30:00,75.3,59.0,30.22,North,9,3.0,13.0,57,0.00,CLR,CLR,0.00,WeatherDisplay:10.37,2013-07-13 18:30:00,
2013-07-13 19:40:00,75.7,59.9,30.22,North,6,6.0,11.0,58,0.00,CLR,CLR,0.00,WeatherDisplay:10.37,2013-07-13 18:40:00,
2013-07-13 19:50:00,75.3,60.0,30.22,NE,56,3.0,10.0,59,0.00,CLR,CLR,0.00,WeatherDisplay:10.37,2013-07-13 18:50:00,
2013-07-13 20:00:00,74.8,60.5,30.22,NE,42,5.0,13.0,61,0.00,CLR,CLR,0.00,WeatherDisplay:10.37,2013-07-13 19:00:00,
2013-07-13 20:10:00,74.8,60.4,30.22,NE,42,3.0,13.0,61,0.00,CLR,CLR,0.00,WeatherDisplay:10.37,2013-07-13 19:10:00,
2013-07-13 20:20:00,73.9,60.1,30.22,NNE,20,3.0,12.0,62,0.00,CLR,CLR,0.00,WeatherDisplay:10.37,2013-07-13 19:20:00,
2013-07-13 20:30:00,73.0,59.7,30.22,North,355,6.0,13.0,63,0.00,CLR,CLR,0.00,WeatherDisplay:10.37,2013-07-13 19:30:00,
2013-07-13 20:40:00,72.5,59.6,30.22,NE,50,5.0,12.0,64,0.00,CLR,CLR,0.00,WeatherDisplay:10.37,2013-07-13 19:40:00,
2013-07-13 20:50:00,72.1,59.7,30.22,NNE,29,7.0,11.0,65,0.00,CLR,CLR,0.00,WeatherDisplay:10.37,2013-07-13 19:50:00,
2013-07-13 21:00:00,71.1,60.0,30.22,NNW,339,3.0,13.0,68,0.00,CLR,CLR,0.00,WeatherDisplay:10.37,2013-07-13 20:00:00,
2013-07-13 21:10:00,70.5,59.4,30.23,NNE,29,5.0,13.0,68,0.00,CLR,CLR,0.00,WeatherDisplay:10.37,2013-07-13 20:10:00,
2013-07-13 21:20:00,69.1,59.3,30.22,NNE,31,2.0,10.0,71,0.00,CLR,CLR,0.00,WeatherDisplay:10.37,2013-07-13 20:20:00,
2013-07-13 21:30:00,68.2,59.3,30.22,NE,37,2.0,9.0,73,0.00,CLR,CLR,0.00,WeatherDisplay:10.37,2013-07-13 20:30:00,
2013-07-13 21:40:00,67.1,58.9,30.23,NNE,15,6.0,11.0,75,0.00,CLR,CLR,0.00,WeatherDisplay:10.37,2013-07-13 20:40:00,
2013-07-13 21:50:00,66.8,58.6,30.23,ENE,64,7.0,13.0,75,0.00,CLR,CLR,0.00,WeatherDisplay:10.37,2013-07-13 20:50:00,
2013-07-13 22:00:00,66.0,58.6,30.23,NW,311,3.0,10.0,77,0.00,CLR,CLR,0.00,WeatherDisplay:10.37,2013-07-13 21:00:00,
2013-07-13 22:10:00,65.8,58.8,30.24,NNE,25,5.0,13.0,78,0.00,CLR,CLR,0.00,WeatherDisplay:10.37,2013-07-13 21:10:00,
2013-07-13 22:20:00,65.3,58.3,30.24,North,5,3.0,13.0,78,0.00,CLR,CLR,0.00,WeatherDisplay:10.37,2013-07-13 21:20:00,
2013-07-13 22:30:00,64.9,58.3,30.24,North,4,6.0,13.0,79,0.00,CLR,CLR,0.00,WeatherDisplay:10.37,2013-07-13 21:30:00,
2013-07-13 22:40:00,64.4,57.7,30.24,NE,53,6.0,15.0,79,0.00,CLR,CLR,0.00,WeatherDisplay:10.37,2013-07-13 21:40:00,
2013-07-13 22:50:00,63.9,57.6,30.24,NNE,28,5.0,16.0,80,0.00,CLR,CLR,0.00,WeatherDisplay:10.37,2013-07-13 21:50:00,
2013-07-13 23:00:00,63.5,57.6,30.25,North,9,5.0,15.0,81,0.00,CLR,CLR,0.00,WeatherDisplay:10.37,2013-07-13 22:00:00,
2013-07-13 23:10:00,63.1,57.2,30.25,NW,322,6.0,15.0,81,0.00,CLR,CLR,0.00,WeatherDisplay:10.37,2013-07-13 22:10:00,
2013-07-13 23:20:00,62.7,56.7,30.25,NNE,21,8.0,15.0,81,0.00,CLR,CLR,0.00,WeatherDisplay:10.37,2013-07-13 22:20:00,
2013-07-13 23:30:00,62.2,56.7,30.24,NNE,20,5.0,25.0,82,0.00,CLR,CLR,0.00,WeatherDisplay:10.37,2013-07-13 22:30:00,
2013-07-13 23:40:00,61.7,56.1,30.24,NE,46,6.0,14.0,82,0.00,CLR,CLR,0.00,WeatherDisplay:10.37,2013-07-13 22:40:00,
2013-07-13 23:50:00,61.2,56.0,30.25,NNE,16,5.0,11.0,83,0.00,CLR,CLR,0.00,WeatherDisplay:10.37,2013-07-13 22:50:00,